sensor_id;sensor_type;location;lat;lon;timestamp;P1;durP1;ratioP1;P2;durP2;ratioP2
70715;SDS011;59053;50.832;12.882;2023-07-13T00:01:57;6.10;;;1.92;;
70715;SDS011;59053;50.832;12.882;2023-07-13T00:04:23;7.97;;;2.00;;
70715;SDS011;59053;50.832;12.882;2023-07-13T00:06:50;5.22;;;1.90;;
70715;SDS011;59053;50.832;12.882;2023-07-13T00:09:16;3.73;;;2.10;;
70715;SDS011;59053;50.832;12.882;2023-07-13T00:11:43;5.38;;;2.17;;
70715;SDS011;59053;50.832;12.882;2023-07-13T00:14:09;4.22;;;1.98;;
70715;SDS011;59053;50.832;12.882;2023-07-13T00:16:36;4.57;;;2.20;;
70715;SDS011;59053;50.832;12.882;2023-07-13T00:19:03;4.63;;;2.17;;
70715;SDS011;59053;50.832;12.882;2023-07-13T00:21:29;4.82;;;2.08;;
70715;SDS011;59053;50.832;12.882;2023-07-13T00:23:54;7.40;;;2.30;;
70715;SDS011;59053;50.832;12.882;2023-07-13T00:26:19;4.70;;;2.20;;
70715;SDS011;59053;50.832;12.882;2023-07-13T00:28:45;5.17;;;2.30;;
70715;SDS011;59053;50.832;12.882;2023-07-13T00:31:11;4.73;;;2.33;;
70715;SDS011;59053;50.832;12.882;2023-07-13T00:33:37;6.95;;;2.50;;
70715;SDS011;59053;50.832;12.882;2023-07-13T00:36:03;4.90;;;2.33;;
70715;SDS011;59053;50.832;12.882;2023-07-13T00:38:29;7.28;;;2.58;;
70715;SDS011;59053;50.832;12.882;2023-07-13T00:40:55;6.53;;;2.60;;
70715;SDS011;59053;50.832;12.882;2023-07-13T00:43:21;4.80;;;2.28;;
70715;SDS011;59053;50.832;12.882;2023-07-13T00:48:16;4.60;;;2.22;;
70715;SDS011;59053;50.832;12.882;2023-07-13T00:50:45;4.32;;;2.47;;
70715;SDS011;59053;50.832;12.882;2023-07-13T00:53:14;6.28;;;2.60;;
70715;SDS011;59053;50.832;12.882;2023-07-13T00:55:39;5.60;;;2.30;;
70715;SDS011;59053;50.832;12.882;2023-07-13T00:58:05;4.50;;;2.30;;
70715;SDS011;59053;50.832;12.882;2023-07-13T01:00:33;4.13;;;2.17;;
70715;SDS011;59053;50.832;12.882;2023-07-13T01:03:00;4.47;;;2.35;;
70715;SDS011;59053;50.832;12.882;2023-07-13T01:05:29;3.85;;;2.30;;
70715;SDS011;59053;50.832;12.882;2023-07-13T01:07:56;4.35;;;2.50;;
70715;SDS011;59053;50.832;12.882;2023-07-13T01:10:22;4.53;;;2.70;;
70715;SDS011;59053;50.832;12.882;2023-07-13T01:12:48;4.57;;;2.45;;
70715;SDS011;59053;50.832;12.882;2023-07-13T01:18:05;3.72;;;2.53;;
70715;SDS011;59053;50.832;12.882;2023-07-13T01:20:32;5.50;;;2.30;;
70715;SDS011;59053;50.832;12.882;2023-07-13T01:23:03;4.18;;;2.40;;
70715;SDS011;59053;50.832;12.882;2023-07-13T01:25:31;5.03;;;2.67;;
70715;SDS011;59053;50.832;12.882;2023-07-13T01:27:57;9.47;;;2.70;;
70715;SDS011;59053;50.832;12.882;2023-07-13T01:30:22;5.33;;;2.60;;
70715;SDS011;59053;50.832;12.882;2023-07-13T01:32:47;3.33;;;2.55;;
70715;SDS011;59053;50.832;12.882;2023-07-13T01:35:13;5.80;;;2.70;;
70715;SDS011;59053;50.832;12.882;2023-07-13T01:37:38;5.20;;;2.87;;
70715;SDS011;59053;50.832;12.882;2023-07-13T01:40:04;5.70;;;2.50;;
70715;SDS011;59053;50.832;12.882;2023-07-13T01:42:30;4.80;;;2.80;;
70715;SDS011;59053;50.832;12.882;2023-07-13T01:44:55;3.87;;;2.50;;
70715;SDS011;59053;50.832;12.882;2023-07-13T01:47:21;4.83;;;2.37;;
70715;SDS011;59053;50.832;12.882;2023-07-13T01:49:47;4.88;;;2.70;;
70715;SDS011;59053;50.832;12.882;2023-07-13T01:52:13;4.38;;;2.45;;
70715;SDS011;59053;50.832;12.882;2023-07-13T01:54:38;4.10;;;2.50;;
70715;SDS011;59053;50.832;12.882;2023-07-13T01:57:04;6.70;;;2.80;;
70715;SDS011;59053;50.832;12.882;2023-07-13T01:59:30;4.65;;;2.60;;
70715;SDS011;59053;50.832;12.882;2023-07-13T02:01:55;4.07;;;2.60;;
70715;SDS011;59053;50.832;12.882;2023-07-13T02:04:20;4.60;;;2.53;;
70715;SDS011;59053;50.832;12.882;2023-07-13T02:06:46;4.50;;;2.45;;
70715;SDS011;59053;50.832;12.882;2023-07-13T02:09:14;4.03;;;2.40;;
70715;SDS011;59053;50.832;12.882;2023-07-13T02:11:40;4.90;;;2.50;;
70715;SDS011;59053;50.832;12.882;2023-07-13T02:14:05;6.10;;;2.30;;
70715;SDS011;59053;50.832;12.882;2023-07-13T02:16:30;5.57;;;2.50;;
70715;SDS011;59053;50.832;12.882;2023-07-13T02:18:56;4.47;;;2.60;;
70715;SDS011;59053;50.832;12.882;2023-07-13T02:21:22;5.05;;;2.97;;
70715;SDS011;59053;50.832;12.882;2023-07-13T02:23:50;6.00;;;2.80;;
70715;SDS011;59053;50.832;12.882;2023-07-13T02:26:16;3.83;;;2.40;;
70715;SDS011;59053;50.832;12.882;2023-07-13T02:28:41;5.33;;;2.73;;
70715;SDS011;59053;50.832;12.882;2023-07-13T02:31:11;4.70;;;2.67;;
70715;SDS011;59053;50.832;12.882;2023-07-13T02:33:37;6.10;;;2.90;;
70715;SDS011;59053;50.832;12.882;2023-07-13T02:36:03;6.70;;;2.80;;
70715;SDS011;59053;50.832;12.882;2023-07-13T02:38:30;5.72;;;2.67;;
70715;SDS011;59053;50.832;12.882;2023-07-13T02:40:59;5.72;;;2.83;;
70715;SDS011;59053;50.832;12.882;2023-07-13T02:43:25;5.85;;;3.15;;
70715;SDS011;59053;50.832;12.882;2023-07-13T02:45:50;4.40;;;2.67;;
70715;SDS011;59053;50.832;12.882;2023-07-13T02:48:16;6.65;;;2.92;;
70715;SDS011;59053;50.832;12.882;2023-07-13T02:50:42;6.77;;;3.50;;
70715;SDS011;59053;50.832;12.882;2023-07-13T02:53:07;4.93;;;2.90;;
70715;SDS011;59053;50.832;12.882;2023-07-13T02:55:33;5.95;;;2.60;;
70715;SDS011;59053;50.832;12.882;2023-07-13T02:57:58;5.20;;;2.90;;
70715;SDS011;59053;50.832;12.882;2023-07-13T03:00:24;4.43;;;2.93;;
70715;SDS011;59053;50.832;12.882;2023-07-13T03:02:49;5.18;;;3.03;;
70715;SDS011;59053;50.832;12.882;2023-07-13T03:05:15;6.93;;;2.80;;
70715;SDS011;59053;50.832;12.882;2023-07-13T03:07:41;6.05;;;3.08;;
70715;SDS011;59053;50.832;12.882;2023-07-13T03:10:08;7.68;;;2.83;;
70715;SDS011;59053;50.832;12.882;2023-07-13T03:12:41;5.15;;;3.05;;
70715;SDS011;59053;50.832;12.882;2023-07-13T03:15:13;6.50;;;3.08;;
70715;SDS011;59053;50.832;12.882;2023-07-13T03:17:41;5.13;;;2.97;;
70715;SDS011;59053;50.832;12.882;2023-07-13T03:20:07;6.57;;;3.17;;
70715;SDS011;59053;50.832;12.882;2023-07-13T03:22:33;4.40;;;2.95;;
70715;SDS011;59053;50.832;12.882;2023-07-13T03:24:59;4.83;;;2.70;;
70715;SDS011;59053;50.832;12.882;2023-07-13T03:27:24;3.33;;;2.60;;
70715;SDS011;59053;50.832;12.882;2023-07-13T03:29:49;5.40;;;3.00;;
70715;SDS011;59053;50.832;12.882;2023-07-13T03:32:16;5.35;;;2.80;;
70715;SDS011;59053;50.832;12.882;2023-07-13T03:34:42;6.40;;;2.92;;
70715;SDS011;59053;50.832;12.882;2023-07-13T03:37:08;6.17;;;2.87;;
70715;SDS011;59053;50.832;12.882;2023-07-13T03:39:35;4.72;;;3.03;;
70715;SDS011;59053;50.832;12.882;2023-07-13T03:42:01;5.63;;;3.10;;
70715;SDS011;59053;50.832;12.882;2023-07-13T03:44:27;5.20;;;3.08;;
70715;SDS011;59053;50.832;12.882;2023-07-13T03:46:54;5.93;;;3.30;;
70715;SDS011;59053;50.832;12.882;2023-07-13T03:49:20;5.20;;;3.20;;
70715;SDS011;59053;50.832;12.882;2023-07-13T03:51:45;6.17;;;3.00;;
70715;SDS011;59053;50.832;12.882;2023-07-13T03:54:11;5.90;;;3.15;;
70715;SDS011;59053;50.832;12.882;2023-07-13T03:56:36;5.67;;;2.90;;
70715;SDS011;59053;50.832;12.882;2023-07-13T03:59:03;6.50;;;2.97;;
70715;SDS011;59053;50.832;12.882;2023-07-13T04:01:29;6.30;;;2.90;;
70715;SDS011;59053;50.832;12.882;2023-07-13T04:03:54;7.63;;;3.10;;
70715;SDS011;59053;50.832;12.882;2023-07-13T04:06:23;4.22;;;2.90;;
70715;SDS011;59053;50.832;12.882;2023-07-13T04:08:53;5.63;;;2.90;;
70715;SDS011;59053;50.832;12.882;2023-07-13T04:11:23;5.40;;;3.05;;
70715;SDS011;59053;50.832;12.882;2023-07-13T04:13:49;5.85;;;3.17;;
70715;SDS011;59053;50.832;12.882;2023-07-13T04:16:16;5.63;;;2.85;;
70715;SDS011;59053;50.832;12.882;2023-07-13T04:18:42;5.28;;;3.10;;
70715;SDS011;59053;50.832;12.882;2023-07-13T04:21:08;8.20;;;3.10;;
70715;SDS011;59053;50.832;12.882;2023-07-13T04:23:34;6.90;;;3.47;;
70715;SDS011;59053;50.832;12.882;2023-07-13T04:26:00;6.95;;;3.20;;
70715;SDS011;59053;50.832;12.882;2023-07-13T04:28:26;5.97;;;3.50;;
70715;SDS011;59053;50.832;12.882;2023-07-13T04:30:51;5.38;;;3.13;;
70715;SDS011;59053;50.832;12.882;2023-07-13T04:33:17;7.40;;;3.80;;
70715;SDS011;59053;50.832;12.882;2023-07-13T04:35:43;6.70;;;3.30;;
70715;SDS011;59053;50.832;12.882;2023-07-13T04:38:09;5.88;;;3.30;;
70715;SDS011;59053;50.832;12.882;2023-07-13T04:40:36;6.90;;;3.40;;
70715;SDS011;59053;50.832;12.882;2023-07-13T04:43:02;6.63;;;3.30;;
70715;SDS011;59053;50.832;12.882;2023-07-13T04:45:27;6.80;;;3.33;;
70715;SDS011;59053;50.832;12.882;2023-07-13T04:47:52;5.00;;;2.97;;
70715;SDS011;59053;50.832;12.882;2023-07-13T04:50:18;5.23;;;3.37;;
70715;SDS011;59053;50.832;12.882;2023-07-13T04:52:48;5.60;;;3.20;;
70715;SDS011;59053;50.832;12.882;2023-07-13T04:55:14;7.85;;;3.50;;
70715;SDS011;59053;50.832;12.882;2023-07-13T04:57:39;5.73;;;3.60;;
70715;SDS011;59053;50.832;12.882;2023-07-13T05:00:05;7.50;;;3.57;;
70715;SDS011;59053;50.832;12.882;2023-07-13T05:02:32;6.65;;;3.30;;
70715;SDS011;59053;50.832;12.882;2023-07-13T05:04:58;7.85;;;3.42;;
70715;SDS011;59053;50.832;12.882;2023-07-13T05:07:24;7.13;;;3.57;;
70715;SDS011;59053;50.832;12.882;2023-07-13T05:09:50;7.78;;;3.28;;
70715;SDS011;59053;50.832;12.882;2023-07-13T05:12:15;6.90;;;3.60;;
70715;SDS011;59053;50.832;12.882;2023-07-13T05:14:41;6.40;;;2.93;;
70715;SDS011;59053;50.832;12.882;2023-07-13T05:17:06;6.30;;;3.50;;
70715;SDS011;59053;50.832;12.882;2023-07-13T05:19:32;9.23;;;3.80;;
70715;SDS011;59053;50.832;12.882;2023-07-13T05:21:57;6.67;;;3.60;;
70715;SDS011;59053;50.832;12.882;2023-07-13T05:24:22;6.53;;;3.30;;
70715;SDS011;59053;50.832;12.882;2023-07-13T05:26:48;6.43;;;3.60;;
70715;SDS011;59053;50.832;12.882;2023-07-13T05:29:13;5.77;;;3.40;;
70715;SDS011;59053;50.832;12.882;2023-07-13T05:31:39;7.20;;;3.37;;
70715;SDS011;59053;50.832;12.882;2023-07-13T05:34:04;5.77;;;3.10;;
70715;SDS011;59053;50.832;12.882;2023-07-13T05:36:30;7.32;;;3.50;;
70715;SDS011;59053;50.832;12.882;2023-07-13T05:38:55;9.33;;;2.97;;
70715;SDS011;59053;50.832;12.882;2023-07-13T05:41:21;7.47;;;3.07;;
70715;SDS011;59053;50.832;12.882;2023-07-13T05:43:46;7.00;;;2.88;;
70715;SDS011;59053;50.832;12.882;2023-07-13T05:46:11;6.33;;;2.80;;
70715;SDS011;59053;50.832;12.882;2023-07-13T05:48:37;7.90;;;3.03;;
70715;SDS011;59053;50.832;12.882;2023-07-13T05:51:02;8.48;;;2.80;;
70715;SDS011;59053;50.832;12.882;2023-07-13T05:53:28;8.33;;;2.93;;
70715;SDS011;59053;50.832;12.882;2023-07-13T05:55:53;4.10;;;2.57;;
70715;SDS011;59053;50.832;12.882;2023-07-13T05:58:19;4.70;;;2.50;;
70715;SDS011;59053;50.832;12.882;2023-07-13T06:00:45;8.60;;;2.40;;
70715;SDS011;59053;50.832;12.882;2023-07-13T06:03:10;4.43;;;2.30;;
70715;SDS011;59053;50.832;12.882;2023-07-13T06:05:36;5.40;;;2.60;;
70715;SDS011;59053;50.832;12.882;2023-07-13T06:08:03;5.60;;;2.53;;
70715;SDS011;59053;50.832;12.882;2023-07-13T06:10:29;6.32;;;2.70;;
70715;SDS011;59053;50.832;12.882;2023-07-13T06:12:54;8.63;;;2.85;;
70715;SDS011;59053;50.832;12.882;2023-07-13T06:15:20;3.70;;;2.60;;
70715;SDS011;59053;50.832;12.882;2023-07-13T06:17:45;3.90;;;2.20;;
70715;SDS011;59053;50.832;12.882;2023-07-13T06:20:11;5.50;;;2.53;;
70715;SDS011;59053;50.832;12.882;2023-07-13T06:22:36;6.67;;;2.50;;
70715;SDS011;59053;50.832;12.882;2023-07-13T06:25:02;7.67;;;2.70;;
70715;SDS011;59053;50.832;12.882;2023-07-13T06:27:28;3.63;;;2.05;;
70715;SDS011;59053;50.832;12.882;2023-07-13T06:29:53;4.73;;;2.17;;
70715;SDS011;59053;50.832;12.882;2023-07-13T06:32:18;10.53;;;2.20;;
70715;SDS011;59053;50.832;12.882;2023-07-13T06:34:44;6.87;;;2.30;;
70715;SDS011;59053;50.832;12.882;2023-07-13T06:37:09;3.47;;;2.25;;
70715;SDS011;59053;50.832;12.882;2023-07-13T06:39:35;5.90;;;2.10;;
70715;SDS011;59053;50.832;12.882;2023-07-13T06:42:00;5.60;;;2.07;;
70715;SDS011;59053;50.832;12.882;2023-07-13T06:44:26;6.03;;;2.33;;
70715;SDS011;59053;50.832;12.882;2023-07-13T06:46:51;6.70;;;2.17;;
70715;SDS011;59053;50.832;12.882;2023-07-13T06:49:16;7.53;;;2.30;;
70715;SDS011;59053;50.832;12.882;2023-07-13T06:51:42;8.27;;;1.90;;
70715;SDS011;59053;50.832;12.882;2023-07-13T06:54:07;3.87;;;1.93;;
70715;SDS011;59053;50.832;12.882;2023-07-13T06:56:33;4.55;;;2.10;;
70715;SDS011;59053;50.832;12.882;2023-07-13T06:58:58;6.27;;;1.90;;
70715;SDS011;59053;50.832;12.882;2023-07-13T07:01:23;5.37;;;2.00;;
70715;SDS011;59053;50.832;12.882;2023-07-13T07:03:49;5.67;;;2.40;;
70715;SDS011;59053;50.832;12.882;2023-07-13T07:06:19;6.30;;;1.90;;
70715;SDS011;59053;50.832;12.882;2023-07-13T07:08:45;4.57;;;2.00;;
70715;SDS011;59053;50.832;12.882;2023-07-13T07:11:12;4.88;;;2.17;;
70715;SDS011;59053;50.832;12.882;2023-07-13T07:13:38;3.67;;;1.80;;
70715;SDS011;59053;50.832;12.882;2023-07-13T07:16:04;5.20;;;2.10;;
70715;SDS011;59053;50.832;12.882;2023-07-13T07:18:29;4.97;;;1.80;;
70715;SDS011;59053;50.832;12.882;2023-07-13T07:20:54;4.97;;;1.90;;
70715;SDS011;59053;50.832;12.882;2023-07-13T07:23:20;3.03;;;1.73;;
70715;SDS011;59053;50.832;12.882;2023-07-13T07:25:45;4.93;;;1.80;;
70715;SDS011;59053;50.832;12.882;2023-07-13T07:28:12;5.33;;;1.80;;
70715;SDS011;59053;50.832;12.882;2023-07-13T07:30:41;5.57;;;2.00;;
70715;SDS011;59053;50.832;12.882;2023-07-13T07:33:08;7.38;;;2.17;;
70715;SDS011;59053;50.832;12.882;2023-07-13T07:35:33;6.33;;;2.00;;
70715;SDS011;59053;50.832;12.882;2023-07-13T07:37:59;6.13;;;1.80;;
70715;SDS011;59053;50.832;12.882;2023-07-13T07:40:24;3.50;;;2.10;;
70715;SDS011;59053;50.832;12.882;2023-07-13T07:42:50;3.38;;;1.80;;
70715;SDS011;59053;50.832;12.882;2023-07-13T07:45:15;5.37;;;1.83;;
70715;SDS011;59053;50.832;12.882;2023-07-13T07:47:41;2.50;;;1.80;;
70715;SDS011;59053;50.832;12.882;2023-07-13T07:50:06;6.13;;;2.20;;
70715;SDS011;59053;50.832;12.882;2023-07-13T07:52:32;5.17;;;1.83;;
70715;SDS011;59053;50.832;12.882;2023-07-13T07:54:57;3.40;;;2.00;;
70715;SDS011;59053;50.832;12.882;2023-07-13T07:57:23;5.22;;;1.98;;
70715;SDS011;59053;50.832;12.882;2023-07-13T07:59:48;3.43;;;1.93;;
70715;SDS011;59053;50.832;12.882;2023-07-13T08:02:13;5.47;;;2.10;;
70715;SDS011;59053;50.832;12.882;2023-07-13T08:04:39;2.80;;;1.70;;
70715;SDS011;59053;50.832;12.882;2023-07-13T08:07:04;5.30;;;1.70;;
70715;SDS011;59053;50.832;12.882;2023-07-13T08:09:30;3.37;;;1.70;;
70715;SDS011;59053;50.832;12.882;2023-07-13T08:11:55;5.93;;;2.10;;
70715;SDS011;59053;50.832;12.882;2023-07-13T08:14:21;7.03;;;1.80;;
70715;SDS011;59053;50.832;12.882;2023-07-13T08:16:46;4.87;;;2.10;;
70715;SDS011;59053;50.832;12.882;2023-07-13T08:19:11;6.87;;;2.13;;
70715;SDS011;59053;50.832;12.882;2023-07-13T08:21:37;4.07;;;1.70;;
70715;SDS011;59053;50.832;12.882;2023-07-13T08:24:02;4.80;;;1.80;;
70715;SDS011;59053;50.832;12.882;2023-07-13T08:26:28;3.30;;;1.80;;
70715;SDS011;59053;50.832;12.882;2023-07-13T08:28:53;8.90;;;1.73;;
70715;SDS011;59053;50.832;12.882;2023-07-13T08:31:19;4.60;;;1.90;;
70715;SDS011;59053;50.832;12.882;2023-07-13T08:33:44;3.22;;;1.80;;
70715;SDS011;59053;50.832;12.882;2023-07-13T08:36:10;4.90;;;1.63;;
70715;SDS011;59053;50.832;12.882;2023-07-13T08:38:35;3.90;;;1.93;;
70715;SDS011;59053;50.832;12.882;2023-07-13T08:41:03;3.63;;;1.60;;
70715;SDS011;59053;50.832;12.882;2023-07-13T08:43:36;4.65;;;2.00;;
70715;SDS011;59053;50.832;12.882;2023-07-13T08:48:58;5.05;;;1.85;;
70715;SDS011;59053;50.832;12.882;2023-07-13T08:51:32;4.00;;;2.00;;
70715;SDS011;59053;50.832;12.882;2023-07-13T08:56:47;5.60;;;1.70;;
70715;SDS011;59053;50.832;12.882;2023-07-13T08:59:16;3.57;;;2.00;;
70715;SDS011;59053;50.832;12.882;2023-07-13T09:04:48;3.90;;;1.70;;
70715;SDS011;59053;50.832;12.882;2023-07-13T09:07:23;4.35;;;1.90;;
70715;SDS011;59053;50.832;12.882;2023-07-13T09:12:45;8.10;;;2.10;;
70715;SDS011;59053;50.832;12.882;2023-07-13T09:15:29;6.95;;;2.20;;
70715;SDS011;59053;50.832;12.882;2023-07-13T09:18:03;9.07;;;2.53;;
70715;SDS011;59053;50.832;12.882;2023-07-13T09:20:54;4.53;;;2.10;;
70715;SDS011;59053;50.832;12.882;2023-07-13T09:23:20;5.38;;;1.90;;
70715;SDS011;59053;50.832;12.882;2023-07-13T09:25:48;5.07;;;2.10;;
70715;SDS011;59053;50.832;12.882;2023-07-13T09:28:29;4.65;;;2.10;;
70715;SDS011;59053;50.832;12.882;2023-07-13T09:31:11;3.65;;;2.20;;
70715;SDS011;59053;50.832;12.882;2023-07-13T09:33:39;7.75;;;2.20;;
70715;SDS011;59053;50.832;12.882;2023-07-13T09:36:17;3.47;;;1.97;;
70715;SDS011;59053;50.832;12.882;2023-07-13T09:38:55;6.38;;;2.00;;
70715;SDS011;59053;50.832;12.882;2023-07-13T09:41:39;7.47;;;1.70;;
70715;SDS011;59053;50.832;12.882;2023-07-13T09:46:56;4.55;;;2.00;;
70715;SDS011;59053;50.832;12.882;2023-07-13T09:49:29;7.97;;;2.55;;
70715;SDS011;59053;50.832;12.882;2023-07-13T09:52:09;9.57;;;2.47;;
70715;SDS011;59053;50.832;12.882;2023-07-13T09:54:36;7.65;;;2.55;;
70715;SDS011;59053;50.832;12.882;2023-07-13T09:57:03;6.63;;;2.78;;
70715;SDS011;59053;50.832;12.882;2023-07-13T09:59:39;4.00;;;2.10;;
70715;SDS011;59053;50.832;12.882;2023-07-13T10:05:03;4.18;;;2.10;;
70715;SDS011;59053;50.832;12.882;2023-07-13T10:07:31;5.20;;;2.28;;
70715;SDS011;59053;50.832;12.882;2023-07-13T10:09:58;6.40;;;2.30;;
70715;SDS011;59053;50.832;12.882;2023-07-13T10:12:29;5.97;;;2.23;;
70715;SDS011;59053;50.832;12.882;2023-07-13T10:14:56;4.80;;;2.15;;
70715;SDS011;59053;50.832;12.882;2023-07-13T10:17:26;5.45;;;2.10;;
70715;SDS011;59053;50.832;12.882;2023-07-13T10:19:55;4.82;;;1.90;;
70715;SDS011;59053;50.832;12.882;2023-07-13T10:22:31;4.80;;;2.03;;
70715;SDS011;59053;50.832;12.882;2023-07-13T10:25:03;3.00;;;2.00;;
70715;SDS011;59053;50.832;12.882;2023-07-13T10:27:38;4.22;;;2.05;;
70715;SDS011;59053;50.832;12.882;2023-07-13T10:32:42;3.40;;;1.92;;
70715;SDS011;59053;50.832;12.882;2023-07-13T10:35:10;6.93;;;2.15;;
70715;SDS011;59053;50.832;12.882;2023-07-13T10:37:53;3.90;;;1.80;;
70715;SDS011;59053;50.832;12.882;2023-07-13T10:40:43;5.43;;;1.80;;
70715;SDS011;59053;50.832;12.882;2023-07-13T10:43:55;3.28;;;1.60;;
70715;SDS011;59053;50.832;12.882;2023-07-13T10:46:05;7.38;;;1.95;;
70715;SDS011;59053;50.832;12.882;2023-07-13T10:48:33;6.25;;;1.90;;
70715;SDS011;59053;50.832;12.882;2023-07-13T10:50:59;4.40;;;1.70;;
70715;SDS011;59053;50.832;12.882;2023-07-13T10:53:36;5.32;;;2.00;;
70715;SDS011;59053;50.832;12.882;2023-07-13T10:56:08;4.05;;;1.70;;
70715;SDS011;59053;50.832;12.882;2023-07-13T10:58:44;4.57;;;1.70;;
70715;SDS011;59053;50.832;12.882;2023-07-13T11:01:12;2.75;;;1.70;;
70715;SDS011;59053;50.832;12.882;2023-07-13T11:06:37;3.75;;;1.92;;
70715;SDS011;59053;50.832;12.882;2023-07-13T11:11:45;5.20;;;1.70;;
70715;SDS011;59053;50.832;12.882;2023-07-13T11:16:46;7.28;;;2.20;;
70715;SDS011;59053;50.832;12.882;2023-07-13T11:25:21;4.70;;;1.90;;
70715;SDS011;59053;50.832;12.882;2023-07-13T11:27:42;6.40;;;1.73;;
70715;SDS011;59053;50.832;12.882;2023-07-13T11:30:21;5.78;;;1.90;;
70715;SDS011;59053;50.832;12.882;2023-07-13T11:33:10;3.17;;;1.70;;
70715;SDS011;59053;50.832;12.882;2023-07-13T11:35:41;4.30;;;1.92;;
70715;SDS011;59053;50.832;12.882;2023-07-13T11:38:17;5.07;;;1.80;;
70715;SDS011;59053;50.832;12.882;2023-07-13T11:40:48;3.30;;;1.60;;
70715;SDS011;59053;50.832;12.882;2023-07-13T11:43:15;5.03;;;1.98;;
70715;SDS011;59053;50.832;12.882;2023-07-13T11:45:42;4.32;;;1.90;;
70715;SDS011;59053;50.832;12.882;2023-07-13T11:48:17;4.57;;;2.10;;
70715;SDS011;59053;50.832;12.882;2023-07-13T11:51:02;7.63;;;2.10;;
70715;SDS011;59053;50.832;12.882;2023-07-13T11:53:40;2.97;;;1.90;;
70715;SDS011;59053;50.832;12.882;2023-07-13T11:56:09;5.78;;;1.90;;
70715;SDS011;59053;50.832;12.882;2023-07-13T11:58:34;5.60;;;2.10;;
70715;SDS011;59053;50.832;12.882;2023-07-13T12:01:00;6.07;;;1.80;;
70715;SDS011;59053;50.832;12.882;2023-07-13T12:03:29;5.83;;;2.10;;
70715;SDS011;59053;50.832;12.882;2023-07-13T12:05:56;4.47;;;1.90;;
70715;SDS011;59053;50.832;12.882;2023-07-13T12:08:23;3.92;;;1.90;;
70715;SDS011;59053;50.832;12.882;2023-07-13T12:10:55;6.23;;;1.97;;
70715;SDS011;59053;50.832;12.882;2023-07-13T12:13:21;4.53;;;2.30;;
70715;SDS011;59053;50.832;12.882;2023-07-13T12:15:47;3.03;;;2.10;;
70715;SDS011;59053;50.832;12.882;2023-07-13T12:18:20;5.57;;;2.03;;
70715;SDS011;59053;50.832;12.882;2023-07-13T12:20:47;3.78;;;1.98;;
70715;SDS011;59053;50.832;12.882;2023-07-13T12:23:28;4.55;;;2.10;;
70715;SDS011;59053;50.832;12.882;2023-07-13T12:25:56;5.55;;;1.92;;
70715;SDS011;59053;50.832;12.882;2023-07-13T12:28:31;4.00;;;2.20;;
70715;SDS011;59053;50.832;12.882;2023-07-13T12:30:58;5.00;;;2.20;;
70715;SDS011;59053;50.832;12.882;2023-07-13T12:33:44;3.22;;;2.15;;
70715;SDS011;59053;50.832;12.882;2023-07-13T12:36:10;4.23;;;2.10;;
70715;SDS011;59053;50.832;12.882;2023-07-13T12:38:36;4.10;;;2.08;;
70715;SDS011;59053;50.832;12.882;2023-07-13T12:41:02;3.23;;;2.07;;
70715;SDS011;59053;50.832;12.882;2023-07-13T12:43:28;5.10;;;2.22;;
70715;SDS011;59053;50.832;12.882;2023-07-13T12:46:01;4.30;;;2.00;;
70715;SDS011;59053;50.832;12.882;2023-07-13T12:48:28;4.30;;;1.95;;
70715;SDS011;59053;50.832;12.882;2023-07-13T12:50:55;3.40;;;1.97;;
70715;SDS011;59053;50.832;12.882;2023-07-13T12:53:22;6.22;;;2.45;;
70715;SDS011;59053;50.832;12.882;2023-07-13T12:55:49;4.68;;;2.13;;
70715;SDS011;59053;50.832;12.882;2023-07-13T12:58:18;3.87;;;2.00;;
70715;SDS011;59053;50.832;12.882;2023-07-13T13:00:49;3.55;;;1.88;;
70715;SDS011;59053;50.832;12.882;2023-07-13T13:08:32;3.95;;;2.35;;
70715;SDS011;59053;50.832;12.882;2023-07-13T13:10:59;3.40;;;2.10;;
70715;SDS011;59053;50.832;12.882;2023-07-13T13:13:26;8.10;;;2.40;;
70715;SDS011;59053;50.832;12.882;2023-07-13T13:15:51;3.40;;;1.87;;
70715;SDS011;59053;50.832;12.882;2023-07-13T13:18:21;5.07;;;2.13;;
70715;SDS011;59053;50.832;12.882;2023-07-13T13:20:47;4.85;;;2.03;;
70715;SDS011;59053;50.832;12.882;2023-07-13T13:23:14;4.13;;;1.77;;
70715;SDS011;59053;50.832;12.882;2023-07-13T13:25:43;3.20;;;1.80;;
70715;SDS011;59053;50.832;12.882;2023-07-13T13:28:13;6.97;;;1.85;;
70715;SDS011;59053;50.832;12.882;2023-07-13T13:30:41;4.05;;;1.65;;
70715;SDS011;59053;50.832;12.882;2023-07-13T13:33:09;6.53;;;2.22;;
70715;SDS011;59053;50.832;12.882;2023-07-13T13:35:37;3.28;;;1.85;;
70715;SDS011;59053;50.832;12.882;2023-07-13T13:38:11;4.07;;;1.93;;
70715;SDS011;59053;50.832;12.882;2023-07-13T13:40:43;4.53;;;2.05;;
70715;SDS011;59053;50.832;12.882;2023-07-13T13:43:13;4.82;;;1.90;;
70715;SDS011;59053;50.832;12.882;2023-07-13T13:45:41;3.55;;;1.90;;
70715;SDS011;59053;50.832;12.882;2023-07-13T13:48:08;5.23;;;2.00;;
70715;SDS011;59053;50.832;12.882;2023-07-13T13:50:39;3.00;;;1.80;;
70715;SDS011;59053;50.832;12.882;2023-07-13T13:53:07;4.40;;;1.70;;
70715;SDS011;59053;50.832;12.882;2023-07-13T13:55:35;3.53;;;1.70;;
70715;SDS011;59053;50.832;12.882;2023-07-13T13:58:00;4.63;;;1.67;;
70715;SDS011;59053;50.832;12.882;2023-07-13T14:00:26;3.80;;;1.60;;
70715;SDS011;59053;50.832;12.882;2023-07-13T14:02:51;3.10;;;1.60;;
70715;SDS011;59053;50.832;12.882;2023-07-13T14:05:20;3.63;;;1.80;;
70715;SDS011;59053;50.832;12.882;2023-07-13T14:07:47;1.85;;;1.52;;
70715;SDS011;59053;50.832;12.882;2023-07-13T14:10:16;2.77;;;1.57;;
70715;SDS011;59053;50.832;12.882;2023-07-13T14:12:44;4.00;;;1.40;;
70715;SDS011;59053;50.832;12.882;2023-07-13T14:15:30;2.50;;;1.38;;
70715;SDS011;59053;50.832;12.882;2023-07-13T14:17:56;2.37;;;1.40;;
70715;SDS011;59053;50.832;12.882;2023-07-13T14:20:23;4.90;;;1.45;;
70715;SDS011;59053;50.832;12.882;2023-07-13T14:22:50;1.80;;;1.13;;
70715;SDS011;59053;50.832;12.882;2023-07-13T14:25:16;2.95;;;1.50;;
70715;SDS011;59053;50.832;12.882;2023-07-13T14:27:43;2.35;;;1.40;;
70715;SDS011;59053;50.832;12.882;2023-07-13T14:30:12;6.07;;;1.50;;
70715;SDS011;59053;50.832;12.882;2023-07-13T14:32:41;3.47;;;1.23;;
70715;SDS011;59053;50.832;12.882;2023-07-13T14:35:10;2.22;;;1.20;;
70715;SDS011;59053;50.832;12.882;2023-07-13T14:37:36;1.93;;;1.40;;
70715;SDS011;59053;50.832;12.882;2023-07-13T14:40:01;3.33;;;1.30;;
70715;SDS011;59053;50.832;12.882;2023-07-13T14:42:27;3.30;;;1.10;;
70715;SDS011;59053;50.832;12.882;2023-07-13T14:44:52;4.00;;;1.23;;
70715;SDS011;59053;50.832;12.882;2023-07-13T14:47:17;1.70;;;1.17;;
70715;SDS011;59053;50.832;12.882;2023-07-13T14:49:43;2.63;;;1.30;;
70715;SDS011;59053;50.832;12.882;2023-07-13T14:52:13;2.73;;;1.10;;
70715;SDS011;59053;50.832;12.882;2023-07-13T14:54:41;4.28;;;1.60;;
70715;SDS011;59053;50.832;12.882;2023-07-13T14:57:12;2.15;;;1.30;;
70715;SDS011;59053;50.832;12.882;2023-07-13T14:59:39;4.93;;;1.33;;
70715;SDS011;59053;50.832;12.882;2023-07-13T15:02:12;4.37;;;1.30;;
70715;SDS011;59053;50.832;12.882;2023-07-13T15:04:40;4.72;;;1.20;;
70715;SDS011;59053;50.832;12.882;2023-07-13T15:07:07;3.60;;;1.13;;
70715;SDS011;59053;50.832;12.882;2023-07-13T15:09:35;2.90;;;1.15;;
70715;SDS011;59053;50.832;12.882;2023-07-13T15:12:00;2.70;;;1.00;;
70715;SDS011;59053;50.832;12.882;2023-07-13T15:14:26;4.90;;;1.40;;
70715;SDS011;59053;50.832;12.882;2023-07-13T15:16:54;3.10;;;1.55;;
70715;SDS011;59053;50.832;12.882;2023-07-13T15:19:20;4.87;;;1.40;;
70715;SDS011;59053;50.832;12.882;2023-07-13T15:21:48;3.03;;;0.90;;